Time;durP1;ratioP1;P1;durP2;ratioP2;P2;SDS_P1;SDS_P2;PMS_P1;PMS_P2;Temp;Humidity;BMP_temperature;BMP_pressure;BME280_temperature;BME280_humidity;BME280_pressure;Samples;Min_cycle;Max_cycle;Signal;HPM_P1;HPM_P2
2023/04/03 00:01:18;;;;;;;2.93;1.53;;;;;;;-145.18;100.00;47080.38;6181236;23;20009;-79
2023/04/03 00:03:43;;;;;;;4.37;1.60;;;;;;;-145.18;100.00;47049.13;6155229;23;20338;-79
2023/04/03 00:06:11;;;;;;;7.80;1.83;;;;;;;-145.18;100.00;47078.44;6181079;23;20255;-79
2023/04/03 00:08:37;;;;;;;6.47;1.73;;;;;;;-145.18;100.00;47068.66;6181863;23;20012;-78
2023/04/03 00:11:03;;;;;;;3.57;1.77;;;;;;;-145.18;100.00;47047.19;6181854;23;20572;-79
2023/04/03 00:13:29;;;;;;;5.03;1.80;;;;;;;-145.18;100.00;47023.72;6181071;23;20257;-78
2023/04/03 00:15:54;;;;;;;4.13;1.80;;;;;;;-145.18;100.00;47027.63;6181703;23;20238;-78
2023/04/03 00:18:21;;;;;;;3.73;1.57;;;;;;;-145.18;100.00;47037.41;6181343;23;20005;-78
2023/04/03 00:20:47;;;;;;;3.53;1.60;;;;;;;-145.18;100.00;47015.91;6181775;23;20505;-78
2023/04/03 00:23:12;;;;;;;3.00;1.70;;;;;;;-145.18;100.00;47023.72;6180987;23;20235;-78
2023/04/03 00:25:38;;;;;;;5.77;1.50;;;;;;;-145.18;100.00;47010.06;6155568;23;20234;-78
2023/04/03 00:28:04;;;;;;;4.50;1.80;;;;;;;-145.18;100.00;47015.91;6181643;23;20426;-78
2023/04/03 00:30:29;;;;;;;7.03;1.70;;;;;;;-145.18;100.00;46992.47;6182456;23;20009;-78
2023/04/03 00:32:55;;;;;;;4.70;1.73;;;;;;;-145.18;100.00;46951.44;6183152;23;20359;-78
2023/04/03 00:35:22;;;;;;;6.03;2.13;;;;;;;-145.18;100.00;46990.53;6183136;23;20017;-78
2023/04/03 00:37:48;;;;;;;5.10;1.70;;;;;;;-145.18;100.00;46963.19;6183204;23;20013;-78
2023/04/03 00:40:15;;;;;;;3.03;1.40;;;;;;;-145.18;100.00;46961.22;6182992;23;20231;-78
2023/04/03 00:42:42;;;;;;;5.53;1.60;;;;;;;-145.18;100.00;46949.50;6183161;23;20262;-79
2023/04/03 00:45:10;;;;;;;6.27;1.70;;;;;;;-145.18;100.00;46949.50;6183385;23;20306;-79
2023/04/03 00:47:36;;;;;;;4.13;1.90;;;;;;;-145.18;100.00;46969.03;6183364;23;20680;-78
2023/04/03 00:50:02;;;;;;;3.67;1.70;;;;;;;-145.18;100.00;46961.22;6183318;23;20239;-78
2023/04/03 00:52:30;;;;;;;5.20;1.73;;;;;;;-145.18;100.00;46933.88;6183063;23;20016;-79
2023/04/03 00:55:01;;;;;;;4.63;1.73;;;;;;;-145.18;100.00;46935.81;6183122;23;20033;-78
2023/04/03 00:57:28;;;;;;;5.47;1.70;;;;;;;-145.18;100.00;46931.91;6182749;23;20227;-79
2023/04/03 01:00:09;;;;;;;7.37;2.27;;;;;;;-145.18;100.00;46922.16;6183081;23;20683;-79
2023/04/03 01:02:35;;;;;;;4.63;1.90;;;;;;;-145.18;100.00;46920.19;6182934;23;20657;-78
2023/04/03 01:05:00;;;;;;;3.37;1.70;;;;;;;-145.18;100.00;46916.28;6182982;23;20341;-79
2023/04/03 01:07:33;;;;;;;5.13;1.73;;;;;;;-145.18;100.00;46920.19;6182752;23;20005;-79
2023/04/03 01:10:03;;;;;;;3.57;1.80;;;;;;;-145.18;100.00;46912.38;6183218;23;20010;-78
2023/04/03 01:12:33;;;;;;;5.10;1.67;;;;;;;-145.18;100.00;46914.34;6182503;23;20249;-78
2023/04/03 01:15:03;;;;;;;4.17;1.90;;;;;;;-145.18;100.00;46902.63;6183107;23;20233;-78
2023/04/03 01:17:30;;;;;;;6.13;1.90;;;;;;;-145.18;100.00;46910.44;6182566;23;20958;-78
2023/04/03 01:20:08;;;;;;;5.07;1.80;;;;;;;-145.18;100.00;46892.84;6182965;23;20242;-77
2023/04/03 01:22:48;;;;;;;7.57;1.93;;;;;;;-145.18;100.00;46883.09;6182572;23;20281;-78
2023/04/03 01:25:14;;;;;;;5.20;1.80;;;;;;;-145.18;100.00;46877.22;6182855;23;20231;-77
2023/04/03 01:27:39;;;;;;;2.97;1.60;;;;;;;-145.18;100.00;46896.75;6182874;23;20894;-78
2023/04/03 01:30:06;;;;;;;5.10;1.60;;;;;;;-145.18;100.00;46910.44;6182751;23;20387;-78
2023/04/03 01:32:31;;;;;;;6.63;1.60;;;;;;;-145.18;100.00;46881.13;6182596;23;20021;-78
2023/04/03 01:34:57;;;;;;;3.20;1.53;;;;;;;-145.18;100.00;46879.19;6182874;23;20699;-78
2023/04/03 01:37:22;;;;;;;4.97;2.00;;;;;;;-145.18;100.00;46881.13;6182350;23;20005;-78
2023/04/03 01:39:47;;;;;;;3.73;2.00;;;;;;;-145.18;100.00;46842.06;6156742;23;20009;-79
2023/04/03 01:42:13;;;;;;;4.23;1.80;;;;;;;-145.18;100.00;46853.78;6182162;23;20040;-79
2023/04/03 01:44:38;;;;;;;4.77;1.77;;;;;;;-145.18;100.00;46845.97;6182870;23;20486;-79
2023/04/03 01:47:07;;;;;;;7.60;1.67;;;;;;;-145.18;100.00;46830.34;6182404;23;20005;-77
2023/04/03 01:49:32;;;;;;;5.73;1.60;;;;;;;-145.18;100.00;46845.97;6182403;23;20029;-77
2023/04/03 01:51:57;;;;;;;7.23;2.00;;;;;;;-145.18;100.00;46826.44;6182797;23;20267;-77
2023/04/03 01:54:23;;;;;;;6.93;1.83;;;;;;;-145.18;100.00;46826.44;6182418;23;20406;-78
2023/04/03 01:56:48;;;;;;;5.80;1.83;;;;;;;-145.18;100.00;46834.25;6182637;23;20443;-78
2023/04/03 01:59:16;;;;;;;6.90;2.43;;;;;;;-145.18;100.00;46844.00;6182210;23;20041;-77
2023/04/03 02:01:43;;;;;;;6.20;1.73;;;;;;;-145.18;100.00;46824.47;6164678;23;20063;-90
2023/04/03 02:04:08;;;;;;;7.10;1.92;;;;;;;-145.18;100.00;46818.63;6151883;23;20017;-77
2023/04/03 02:06:34;;;;;;;3.83;1.90;;;;;;;-145.18;100.00;46806.91;6182692;23;20017;-77
2023/04/03 02:09:00;;;;;;;4.40;2.20;;;;;;;-145.18;100.00;46806.91;6182267;23;20009;-77
2023/04/03 02:11:25;;;;;;;6.83;1.90;;;;;;;-145.18;100.00;46797.13;6182663;23;20013;-77
2023/04/03 02:13:51;;;;;;;9.03;2.03;;;;;;;-145.18;100.00;46791.28;6156296;23;20318;-77
2023/04/03 02:16:16;;;;;;;4.67;1.77;;;;;;;-145.18;100.00;46804.94;6156481;23;20036;-77
2023/04/03 02:18:41;;;;;;;4.93;2.10;;;;;;;-145.18;100.00;46783.47;6155717;23;20016;-77
2023/04/03 02:21:07;;;;;;;4.00;2.20;;;;;;;-145.18;100.00;46779.56;6182829;23;20341;-77
2023/04/03 02:23:35;;;;;;;6.40;1.93;;;;;;;-145.18;100.00;46783.47;6182423;23;20148;-77
2023/04/03 02:26:12;;;;;;;5.75;2.33;;;;;;;-145.18;100.00;46777.59;6182380;23;20331;-77
2023/04/03 02:28:39;;;;;;;7.60;2.05;;;;;;;-145.18;100.00;46765.88;6182494;23;20028;-77
2023/04/03 02:31:06;;;;;;;4.85;2.50;;;;;;;-145.18;100.00;46763.91;6182665;23;20012;-77
2023/04/03 02:33:32;;;;;;;7.10;1.83;;;;;;;-145.18;100.00;46765.88;6182467;23;20013;-77
2023/04/03 02:35:58;;;;;;;4.50;2.00;;;;;;;-145.18;100.00;46744.38;6182076;23;20009;-78
2023/04/03 02:38:24;;;;;;;5.38;2.05;;;;;;;-145.18;100.00;46763.91;6182650;23;20009;-78
2023/04/03 02:40:50;;;;;;;5.20;2.10;;;;;;;-145.18;100.00;46746.34;6156011;23;20009;-78
2023/04/03 02:43:16;;;;;;;5.85;1.85;;;;;;;-145.18;100.00;46744.38;6182600;23;20049;-77
2023/04/03 02:45:41;;;;;;;6.33;2.00;;;;;;;-145.18;100.00;46724.84;6182433;23;20013;-77
2023/04/03 02:48:07;;;;;;;3.33;2.20;;;;;;;-145.18;100.00;46736.56;6155934;23;20035;-77
2023/04/03 02:50:32;;;;;;;5.00;2.17;;;;;;;-145.18;100.00;46732.66;6182192;23;20434;-78
2023/04/03 02:52:57;;;;;;;6.60;1.90;;;;;;;-145.18;100.00;46734.63;6181884;23;20009;-77
2023/04/03 02:55:23;;;;;;;3.50;2.00;;;;;;;-145.18;100.00;46732.66;6182631;23;20009;-78
2023/04/03 02:57:48;;;;;;;5.93;2.30;;;;;;;-145.18;100.00;46720.94;6182243;23;20031;-78
2023/04/03 03:00:14;;;;;;;5.63;2.27;;;;;;;-145.18;100.00;46720.94;6182499;23;20013;-78
2023/04/03 03:02:40;;;;;;;7.03;2.10;;;;;;;-145.18;100.00;46719.00;6181514;23;20025;-77
2023/04/03 03:05:06;;;;;;;6.22;2.38;;;;;;;-145.18;100.00;46720.94;6182573;23;20009;-78
2023/04/03 03:07:31;;;;;;;9.23;2.40;;;;;;;-145.18;100.00;46715.09;6182430;23;20012;-77
2023/04/03 03:09:57;;;;;;;6.77;2.70;;;;;;;-145.18;100.00;46709.22;6181775;23;20013;-78
2023/04/03 03:12:24;;;;;;;7.93;2.43;;;;;;;-145.18;100.00;46711.19;6182209;23;20012;-78
2023/04/03 03:14:49;;;;;;;4.97;2.08;;;;;;;-145.18;100.00;46711.19;6181078;23;20009;-77
2023/04/03 03:17:15;;;;;;;5.07;2.37;;;;;;;-145.18;100.00;46693.59;6182103;23;20325;-77
2023/04/03 03:19:40;;;;;;;6.40;2.23;;;;;;;-145.18;100.00;46699.47;6182113;23;20009;-78
2023/04/03 03:22:06;;;;;;;4.33;2.13;;;;;;;-145.18;100.00;46697.50;6182298;23;20020;-77
2023/04/03 03:24:31;;;;;;;7.23;2.50;;;;;;;-145.18;100.00;46695.56;6182206;23;20009;-78
2023/04/03 03:26:57;;;;;;;4.60;2.30;;;;;;;-145.18;100.00;46691.66;6182141;23;20013;-78
2023/04/03 03:29:22;;;;;;;7.77;2.20;;;;;;;-145.18;100.00;46691.66;6182296;23;20032;-78
2023/04/03 03:31:47;;;;;;;7.60;2.37;;;;;;;-145.18;100.00;46679.94;6181468;23;20074;-78
2023/04/03 03:34:13;;;;;;;7.43;2.57;;;;;;;-145.18;100.00;46683.84;6182445;23;20005;-78
2023/04/03 03:36:39;;;;;;;7.77;2.00;;;;;;;-145.18;100.00;46676.03;6181903;23;20021;-79
2023/04/03 03:39:05;;;;;;;6.70;2.70;;;;;;;-145.18;100.00;46679.94;6182189;23;20009;-79
2023/04/03 03:41:30;;;;;;;8.73;2.30;;;;;;;-145.18;100.00;46676.03;6182349;23;20009;-79
2023/04/03 03:43:56;;;;;;;5.93;2.20;;;;;;;-145.18;100.00;46670.16;6181608;23;20009;-79
2023/04/03 03:46:21;;;;;;;8.17;2.60;;;;;;;-145.18;100.00;46670.16;6155731;23;20017;-78
2023/04/03 03:48:47;;;;;;;7.03;1.90;;;;;;;-145.18;100.00;46666.25;6181560;23;20063;-78
2023/04/03 03:51:12;;;;;;;6.80;2.40;;;;;;;-145.18;100.00;46679.94;6182063;23;20406;-79
2023/04/03 03:53:37;;;;;;;5.50;2.60;;;;;;;-145.18;100.00;46666.25;6181920;23;20009;-79
2023/04/03 03:56:03;;;;;;;8.13;2.60;;;;;;;-145.18;100.00;46662.34;6182151;23;20457;-78
2023/04/03 03:58:29;;;;;;;6.90;2.97;;;;;;;-145.18;100.00;46664.31;6181985;23;20037;-78
2023/04/03 04:00:54;;;;;;;9.63;2.60;;;;;;;-145.18;100.00;46662.34;6181766;23;20599;-79
2023/04/03 04:03:20;;;;;;;4.63;2.50;;;;;;;-145.18;100.00;46664.31;6180804;23;20036;-79
2023/04/03 04:05:47;;;;;;;8.43;2.75;;;;;;;-145.18;100.00;46656.50;6157075;23;20024;-79
2023/04/03 04:08:12;;;;;;;10.10;3.00;;;;;;;-145.18;100.00;46648.69;6183863;23;20063;-78
2023/04/03 04:10:38;;;;;;;8.80;2.87;;;;;;;-145.18;100.00;46646.72;6183827;23;20060;-78
2023/04/03 04:13:03;;;;;;;9.67;2.83;;;;;;;-145.18;100.00;46644.78;6181981;23;20005;-78
2023/04/03 04:15:29;;;;;;;8.53;2.50;;;;;;;-145.18;100.00;46648.69;6183702;23;20016;-78
2023/04/03 04:17:55;;;;;;;5.93;2.60;;;;;;;-145.18;100.00;46644.78;6183496;23;20017;-78
2023/04/03 04:20:20;;;;;;;9.23;3.00;;;;;;;-145.18;100.00;46646.72;6183843;23;20036;-78
2023/04/03 04:22:45;;;;;;;6.27;2.83;;;;;;;-145.18;100.00;46646.72;6182011;23;20095;-78
2023/04/03 04:25:11;;;;;;;6.27;2.50;;;;;;;-145.18;100.00;46638.91;6183914;23;20009;-79
2023/04/03 04:27:36;;;;;;;9.23;2.70;;;;;;;-145.18;100.00;46636.94;6183374;23;20041;-78
2023/04/03 04:30:03;;;;;;;5.87;2.33;;;;;;;-145.18;100.00;46635.00;6183665;23;20009;-79
2023/04/03 04:32:28;;;;;;;7.35;3.03;;;;;;;-145.18;100.00;46638.91;6183557;23;20016;-78
2023/04/03 04:34:54;;;;;;;5.80;2.97;;;;;;;-145.18;100.00;46660.41;6183450;23;20587;-79
2023/04/03 04:37:20;;;;;;;10.43;2.43;;;;;;;-145.18;100.00;46660.41;6183977;23;20005;-79
2023/04/03 04:39:45;;;;;;;6.00;2.77;;;;;;;-145.18;100.00;46660.41;6157094;23;20081;-79
2023/04/03 04:42:12;;;;;;;7.97;3.17;;;;;;;-145.18;100.00;46660.41;6183473;23;20092;-79
2023/04/03 04:44:38;;;;;;;7.70;2.75;;;;;;;-145.18;100.00;46660.41;6183730;23;20016;-79
2023/04/03 04:47:04;;;;;;;9.52;3.13;;;;;;;-145.18;100.00;46660.41;6157307;23;20417;-79
2023/04/03 04:49:29;;;;;;;11.27;3.17;;;;;;;-145.18;100.00;46660.41;6183639;23;20037;-80
2023/04/03 04:51:55;;;;;;;8.23;2.93;;;;;;;-145.18;100.00;46654.53;6183431;23;20012;-79
2023/04/03 04:54:20;;;;;;;5.67;2.37;;;;;;;-145.18;100.00;46656.50;6157224;23;20005;-80
2023/04/03 04:56:46;;;;;;;7.00;2.60;;;;;;;-145.18;100.00;46656.50;6183443;23;20009;-79
2023/04/03 04:59:12;;;;;;;6.80;3.13;;;;;;;-145.18;100.00;46658.44;6183725;23;20005;-79
2023/04/03 05:01:37;;;;;;;7.43;2.80;;;;;;;-145.18;100.00;46660.41;6183814;23;20024;-80
2023/04/03 05:04:03;;;;;;;7.53;3.23;;;;;;;-145.18;100.00;46658.44;6156861;23;20024;-79
2023/04/03 05:06:29;;;;;;;9.17;2.73;;;;;;;-145.18;100.00;46660.41;6183701;23;20009;-79
2023/04/03 05:08:55;;;;;;;5.82;2.80;;;;;;;-145.18;100.00;46660.41;6183258;23;20017;-79
2023/04/03 05:11:20;;;;;;;8.93;3.03;;;;;;;-145.18;100.00;46658.44;6183609;23;20087;-78
2023/04/03 05:13:46;;;;;;;7.50;2.90;;;;;;;-145.18;100.00;46658.44;6181474;23;20096;-80
2023/04/03 05:16:11;;;;;;;10.20;3.10;;;;;;;-145.18;100.00;46652.59;6181503;23;20017;-80
2023/04/03 05:18:36;;;;;;;7.37;3.40;;;;;;;-145.18;100.00;46656.50;6156692;23;20071;-79
2023/04/03 05:21:02;;;;;;;11.90;3.30;;;;;;;-145.18;100.00;46642.81;6156993;23;20016;-79
2023/04/03 05:23:27;;;;;;;8.33;3.37;;;;;;;-145.18;100.00;46658.44;6183146;23;20013;-77
2023/04/03 05:25:53;;;;;;;7.43;3.00;;;;;;;-145.18;100.00;46658.44;6183053;23;20092;-80
2023/04/03 05:28:18;;;;;;;9.53;3.10;;;;;;;-145.18;100.00;46656.50;6156662;23;20013;-79
2023/04/03 05:30:44;;;;;;;8.40;3.13;;;;;;;-145.18;100.00;46654.53;6181944;23;20040;-79
2023/04/03 05:33:10;;;;;;;8.43;2.70;;;;;;;-145.18;100.00;46638.91;6183010;23;20016;-79
2023/04/03 05:35:38;;;;;;;8.27;3.27;;;;;;;-145.18;100.00;46656.50;6182970;23;20009;-79
2023/04/03 05:38:05;;;;;;;10.02;3.38;;;;;;;-145.18;100.00;46642.81;6182990;23;20441;-79
2023/04/03 05:40:30;;;;;;;9.80;3.40;;;;;;;-145.18;100.00;46640.88;6181983;23;20421;-80
2023/04/03 05:42:56;;;;;;;12.90;3.60;;;;;;;-145.18;100.00;46650.63;6182654;23;20013;-79
2023/04/03 05:45:22;;;;;;;7.33;3.23;;;;;;;-145.18;100.00;46650.63;6156528;23;20005;-79
2023/04/03 05:47:47;;;;;;;12.50;3.13;;;;;;;-145.18;100.00;46642.81;6182188;23;20059;-79
2023/04/03 05:50:14;;;;;;;7.97;2.87;;;;;;;-145.18;100.00;46650.63;6155918;23;20100;-79
2023/04/03 05:52:44;;;;;;;7.07;3.00;;;;;;;-145.18;100.00;46652.59;6181264;23;20009;-79
2023/04/03 05:55:09;;;;;;;7.25;3.03;;;;;;;-145.18;100.00;46656.50;6183527;23;20011;-77
2023/04/03 05:57:35;;;;;;;7.27;2.70;;;;;;;-145.18;100.00;46658.44;6182886;23;20084;-77
2023/04/03 06:00:00;;;;;;;6.00;2.70;;;;;;;-145.18;100.00;46617.41;6182801;23;20142;-77
2023/04/03 06:02:26;;;;;;;7.63;2.60;;;;;;;-145.18;100.00;46621.31;6182738;23;20451;-77
2023/04/03 06:04:52;;;;;;;8.68;2.83;;;;;;;-145.18;100.00;46623.28;6183003;23;20012;-77
2023/04/03 06:07:22;;;;;;;5.97;3.00;;;;;;;-145.18;100.00;46627.19;6183099;23;20013;-77
2023/04/03 06:09:48;;;;;;;6.57;3.40;;;;;;;-145.18;100.00;46627.19;6182771;23;20009;-77
2023/04/03 06:12:14;;;;;;;7.70;2.63;;;;;;;-145.18;100.00;46625.22;6182899;23;20009;-77
2023/04/03 06:14:40;;;;;;;7.80;3.30;;;;;;;-145.18;100.00;46627.19;6182423;23;20382;-77
2023/04/03 06:17:08;;;;;;;9.95;3.00;;;;;;;-145.18;100.00;46633.06;6183172;23;20001;-77
2023/04/03 06:19:34;;;;;;;8.93;3.28;;;;;;;-145.18;100.00;46642.81;6182627;23;20001;-77
2023/04/03 06:22:00;;;;;;;9.60;2.83;;;;;;;-145.18;100.00;46650.63;6182761;23;20015;-77
2023/04/03 06:24:26;;;;;;;8.27;2.63;;;;;;;-145.18;100.00;46646.72;6182628;23;20009;-77
2023/04/03 06:26:52;;;;;;;7.50;2.90;;;;;;;-145.18;100.00;46654.53;6182259;23;20009;-77
2023/04/03 06:29:21;;;;;;;10.35;2.80;;;;;;;-145.18;100.00;46650.63;6172838;23;20406;-77
2023/04/03 06:31:47;;;;;;;10.60;3.05;;;;;;;-145.18;100.00;46648.69;6181628;23;20354;-77
2023/04/03 06:34:13;;;;;;;6.30;2.50;;;;;;;-145.18;100.00;46658.44;6181912;23;20084;-77
2023/04/03 06:36:39;;;;;;;9.20;2.60;;;;;;;-145.18;100.00;46664.31;6182537;23;20037;-77
2023/04/03 06:39:06;;;;;;;5.10;2.50;;;;;;;-145.18;100.00;46666.25;6181051;23;20231;-78
2023/04/03 06:41:32;;;;;;;9.18;2.78;;;;;;;-145.18;100.00;46672.13;6181868;23;20012;-78
2023/04/03 06:43:58;;;;;;;6.17;2.70;;;;;;;-145.18;100.00;46672.13;6181106;23;20346;-79
2023/04/03 06:46:25;;;;;;;8.03;2.90;;;;;;;-145.18;100.00;46689.69;6182666;23;20070;-79
2023/04/03 06:48:52;;;;;;;9.35;2.97;;;;;;;-145.18;100.00;46687.75;6181748;23;20622;-80
2023/04/03 06:51:36;;;;;;;6.97;2.60;;;;;;;-145.18;100.00;46687.75;6181821;23;20009;-79
2023/04/03 06:54:02;;;;;;;6.10;2.30;;;;;;;-145.18;100.00;46689.69;6181562;23;20552;-79
2023/04/03 06:56:28;;;;;;;6.20;2.73;;;;;;;-145.18;100.00;46703.38;6182143;23;20013;-79
2023/04/03 06:58:56;;;;;;;7.07;3.00;;;;;;;-145.18;100.00;46703.38;6181370;23;20241;-79
2023/04/03 07:01:22;;;;;;;10.97;2.70;;;;;;;-145.18;100.00;46703.38;6156429;23;20461;-79
2023/04/03 07:03:49;;;;;;;15.80;2.97;;;;;;;-145.18;100.00;46707.28;6181193;23;20627;-79
2023/04/03 07:06:16;;;;;;;7.60;2.60;;;;;;;-145.18;100.00;46711.19;6182136;23;20243;-79
2023/04/03 07:08:42;;;;;;;8.50;3.55;;;;;;;-145.18;100.00;46711.19;6181522;23;20237;-79
2023/04/03 07:11:08;;;;;;;9.97;2.60;;;;;;;-145.18;100.00;46703.38;6181908;23;20049;-79
2023/04/03 07:13:34;;;;;;;6.47;2.63;;;;;;;-145.18;100.00;46715.09;6181641;23;20237;-79
2023/04/03 07:16:00;;;;;;;9.80;2.60;;;;;;;-145.18;100.00;46726.81;6181797;23;20231;-79
2023/04/03 07:18:26;;;;;;;9.97;3.60;;;;;;;-145.18;100.00;46715.09;6181726;23;20013;-79
2023/04/03 07:20:51;;;;;;;9.67;2.53;;;;;;;-145.18;100.00;46728.75;6181859;23;20001;-80
2023/04/03 07:23:17;;;;;;;7.70;2.40;;;;;;;-145.18;100.00;46722.91;6181718;23;20226;-80
2023/04/03 07:25:47;;;;;;;8.27;2.60;;;;;;;-145.18;100.00;46752.19;6181193;23;20016;-80
2023/04/03 07:28:13;;;;;;;6.53;2.90;;;;;;;-145.18;100.00;46742.44;6181384;23;20056;-80
2023/04/03 07:31:10;;;;;;;9.73;2.63;;;;;;;-145.18;100.00;46740.47;6181335;23;20277;-80
2023/04/03 07:33:37;;;;;;;6.37;2.90;;;;;;;-145.18;100.00;46765.88;6152371;23;20619;-80
2023/04/03 07:36:03;;;;;;;7.97;2.60;;;;;;;-145.18;100.00;46775.66;6181763;23;20227;-80
2023/04/03 07:38:28;;;;;;;10.20;2.37;;;;;;;-145.18;100.00;46789.31;6181689;23;20235;-80
2023/04/03 07:40:54;;;;;;;8.40;2.70;;;;;;;-145.18;100.00;46799.09;6181651;23;20231;-81
2023/04/03 07:43:21;;;;;;;8.37;2.60;;;;;;;-145.18;100.00;46808.84;6181977;23;20005;-80
2023/04/03 07:45:50;;;;;;;9.23;2.20;;;;;;;-145.18;100.00;46838.16;6181920;23;20020;-80
2023/04/03 07:48:17;;;;;;;7.67;2.70;;;;;;;-145.18;100.00;46865.50;6182040;23;20235;-81
2023/04/03 07:50:43;;;;;;;5.97;1.83;;;;;;;-145.18;100.00;46873.31;6181605;23;20352;-81
2023/04/03 07:53:08;;;;;;;7.70;2.37;;;;;;;-145.18;100.00;46896.75;6181956;23;20235;-81
2023/04/03 07:55:37;;;;;;;6.80;2.47;;;;;;;-145.18;100.00;46939.72;6181981;23;20245;-82
2023/04/03 07:58:03;;;;;;;7.57;1.77;;;;;;;-145.18;100.00;46969.03;6181798;23;20005;-81
2023/04/03 08:00:29;;;;;;;7.63;2.50;;;;;;;-145.18;100.00;46965.13;6181573;23;20238;-80
2023/04/03 08:02:54;;;;;;;5.37;2.13;;;;;;;-145.18;100.00;46971.00;6181227;23;20708;-81
2023/04/03 08:05:21;;;;;;;7.13;2.10;;;;;;;-145.18;100.00;46972.94;6179917;23;20277;-81
2023/04/03 08:07:47;;;;;;;4.90;2.07;;;;;;;-145.18;100.00;47062.81;6181691;23;20013;-81
2023/04/03 08:10:14;;;;;;;12.50;2.47;;;;;;;-145.18;100.00;47140.94;6181931;23;20250;-82
2023/04/03 08:12:39;;;;;;;7.70;2.10;;;;;;;-145.18;100.00;47215.19;6182028;23;20231;-81
2023/04/03 08:15:06;;;;;;;11.23;2.20;;;;;;;-145.18;100.00;47211.28;6182006;23;20321;-81
2023/04/03 08:17:32;;;;;;;4.30;1.77;;;;;;;-145.18;100.00;47525.81;6181765;23;20009;-81
2023/04/03 08:19:57;;;;;;;7.43;1.87;;;;;;;-145.18;100.00;47691.91;6181540;23;20269;-82
2023/04/03 08:22:23;;;;;;;7.20;2.07;;;;;;;-145.18;100.00;47727.06;6181279;23;20431;-81
2023/04/03 08:24:48;;;;;;;4.80;1.80;;;;;;;-145.18;100.00;47672.34;6155092;23;20009;-81
2023/04/03 08:27:13;;;;;;;9.17;2.30;;;;;;;-145.18;100.00;47691.91;6181315;23;20016;-81
2023/04/03 08:29:39;;;;;;;8.17;2.00;;;;;;;-145.18;100.00;47662.59;6181443;23;20019;-82
2023/04/03 08:32:05;;;;;;;7.20;2.10;;;;;;;-145.18;100.00;47666.50;6182135;23;20005;-81
2023/04/03 08:34:34;;;;;;;4.53;1.63;;;;;;;-145.18;100.00;47672.34;6181748;23;20012;-82
2023/04/03 08:37:00;;;;;;;4.70;1.30;;;;;;;-145.18;100.00;47621.56;6181452;23;20607;-83
2023/04/03 08:39:25;;;;;;;7.33;1.77;;;;;;;-145.18;100.00;47605.94;6180820;23;20270;-82
2023/04/03 08:41:51;;;;;;;6.07;1.90;;;;;;;-145.18;100.00;47641.09;6182200;23;20624;-81
2023/04/03 08:44:46;;;;;;;8.40;1.80;;;;;;;-145.18;100.00;47594.19;6181581;23;20338;-82
2023/04/03 08:47:24;;;;;;;8.67;1.87;;;;;;;-145.18;100.00;47596.16;6181346;23;20683;-83
2023/04/03 08:50:11;;;;;;;6.87;2.20;;;;;;;-145.18;100.00;47592.25;6180466;23;20227;-83
2023/04/03 08:52:38;;;;;;;5.83;1.00;;;;;;;-145.18;100.00;47600.06;6183678;23;20238;-83
2023/04/03 08:55:27;;;;;;;4.57;1.30;;;;;;;-145.18;100.00;47602.00;6182495;23;20227;-83
2023/04/03 08:57:59;;;;;;;2.37;1.10;;;;;;;-145.18;100.00;47605.94;6183454;23;20231;-82
2023/04/03 09:00:28;;;;;;;9.17;1.33;;;;;;;-145.18;100.00;47580.53;6183632;23;20560;-84
2023/04/03 09:02:55;;;;;;;6.17;1.37;;;;;;;-145.18;100.00;47566.84;6182784;23;20889;-84
2023/04/03 09:05:30;;;;;;;5.33;1.47;;;;;;;-145.18;100.00;47570.75;6183438;23;20731;-83
2023/04/03 09:08:06;;;;;;;5.70;1.37;;;;;;;-145.18;100.00;47574.66;6183252;23;20223;-83
2023/04/03 09:10:37;;;;;;;2.70;1.10;;;;;;;-145.18;100.00;47578.56;6183255;23;20338;-83
2023/04/03 09:13:17;;;;;;;6.27;0.80;;;;;;;-145.18;100.00;47566.84;6183045;23;20302;-84
2023/04/03 09:15:44;;;;;;;2.33;1.20;;;;;;;-145.18;100.00;47564.91;6183069;23;20226;-85
2023/04/03 09:18:18;;;;;;;3.80;1.00;;;;;;;-145.18;100.00;47562.94;6183466;23;20750;-83
2023/04/03 09:20:57;;;;;;;2.57;0.93;;;;;;;-145.18;100.00;47574.66;6182961;23;20281;-84
2023/04/03 09:23:35;;;;;;;3.90;1.30;;;;;;;-145.18;100.00;47543.41;6183016;23;20223;-84
2023/04/03 09:26:09;;;;;;;5.53;1.10;;;;;;;-145.18;100.00;47551.22;6183514;23;20243;-84
2023/04/03 09:28:38;;;;;;;3.20;0.90;;;;;;;-145.18;100.00;47545.34;6183170;23;20231;-82
2023/04/03 09:31:21;;;;;;;2.23;0.80;;;;;;;-145.18;100.00;47531.69;6182962;23;20243;-84
2023/04/03 09:33:50;;;;;;;5.13;0.90;;;;;;;-145.18;100.00;47527.78;6182881;23;20255;-85
2023/04/03 09:36:39;;;;;;;1.97;0.90;;;;;;;-145.18;100.00;47535.59;6183586;23;20223;-85
2023/04/03 09:39:09;;;;;;;3.10;0.87;;;;;;;-145.18;100.00;47519.97;6183477;23;20310;-84
2023/04/03 09:41:35;;;;;;;3.13;0.93;;;;;;;-145.18;100.00;47535.59;6183268;23;20247;-84
2023/04/03 09:44:01;;;;;;;1.33;0.50;;;;;;;-145.18;100.00;47527.78;6182845;23;20227;-86
2023/04/03 09:46:32;;;;;;;2.37;0.80;;;;;;;-145.18;100.00;47516.06;6183573;23;20016;-84
2023/04/03 09:49:01;;;;;;;4.53;0.87;;;;;;;-145.18;100.00;47525.81;6182856;23;20231;-85
2023/04/03 09:51:28;;;;;;;2.67;0.70;;;;;;;-145.18;100.00;47529.72;6183237;23;20595;-85
2023/04/03 09:53:55;;;;;;;2.23;0.90;;;;;;;-145.18;100.00;47504.31;6182420;23;20238;-84
2023/04/03 09:56:25;;;;;;;1.70;0.70;;;;;;;-145.18;100.00;47523.88;6183107;23;20735;-86
2023/04/03 09:59:03;;;;;;;2.03;0.80;;;;;;;-145.18;100.00;47512.16;6182725;23;20660;-85
2023/04/03 10:01:57;;;;;;;3.80;0.77;;;;;;;-145.18;100.00;47510.19;6182786;23;20235;-85
2023/04/03 10:04:23;;;;;;;3.00;0.70;;;;;;;-145.18;100.00;47518.00;6182534;23;20312;-85
2023/04/03 10:06:51;;;;;;;1.03;0.43;;;;;;;-145.18;100.00;47490.66;6182901;23;20242;-86
2023/04/03 10:09:24;;;;;;;1.03;0.60;;;;;;;-145.18;100.00;47514.09;6182842;23;20262;-86
2023/04/03 10:12:06;;;;;;;11.27;1.10;;;;;;;-145.18;100.00;47494.56;6181746;23;20249;-86
2023/04/03 10:14:58;;;;;;;4.73;1.03;;;;;;;-145.18;100.00;47504.31;6180208;23;21023;-86
2023/04/03 10:17:34;;;;;;;1.10;0.67;;;;;;;-145.18;100.00;47523.88;6183970;23;20242;-85
2023/04/03 10:20:11;;;;;;;3.42;1.20;;;;;;;-145.18;100.00;47504.31;6182477;23;20234;-85
2023/04/03 10:22:43;;;;;;;2.90;0.70;;;;;;;-145.18;100.00;47504.31;6182782;23;20007;-84
2023/04/03 10:25:30;;;;;;;2.57;0.60;;;;;;;-145.18;100.00;47531.69;6182321;23;20289;-84
2023/04/03 10:27:59;;;;;;;3.43;0.60;;;;;;;-145.18;100.00;47512.16;6182559;23;20286;-86
2023/04/03 10:30:40;;;;;;;1.63;0.50;;;;;;;-145.18;100.00;47486.75;6182823;23;20243;-85
2023/04/03 10:33:27;;;;;;;4.77;0.87;;;;;;;-145.18;100.00;47494.56;6182539;23;20227;-85
2023/04/03 10:36:16;;;;;;;1.20;0.47;;;;;;;-145.18;100.00;47486.75;6180708;23;20226;-85
2023/04/03 10:39:03;;;;;;;1.80;0.70;;;;;;;-145.18;100.00;47494.56;6181764;23;20226;-84
2023/04/03 10:41:43;;;;;;;;;;;;;;;-145.18;100.00;47498.47;6183099;23;20226;-85
2023/04/03 10:44:30;;;;;;;2.00;0.83;;;;;;;-145.18;100.00;47484.78;6182585;23;19935;-84
2023/04/03 10:47:12;;;;;;;1.93;0.80;;;;;;;-145.18;100.00;47465.25;6182255;23;20274;-83
2023/04/03 10:49:42;;;;;;;1.53;0.70;;;;;;;-145.18;100.00;47476.97;6182365;23;20218;-85
2023/04/03 10:52:23;;;;;;;2.63;0.50;;;;;;;-145.18;100.00;47492.59;6182645;23;20234;-84
2023/04/03 10:54:57;;;;;;;5.27;0.90;;;;;;;-145.18;100.00;47459.41;6182076;23;20230;-85
2023/04/03 10:57:24;;;;;;;1.43;0.60;;;;;;;-145.18;100.00;47461.34;6182541;23;20254;-85
2023/04/03 10:59:53;;;;;;;2.07;0.60;;;;;;;-145.18;100.00;47451.56;6182128;23;20286;-85
2023/04/03 11:02:22;;;;;;;2.53;0.53;;;;;;;-145.18;100.00;47459.41;6182522;23;20273;-83
2023/04/03 11:04:52;;;;;;;1.77;0.60;;;;;;;-145.18;100.00;47453.53;6181782;23;20306;-84
2023/04/03 11:07:24;;;;;;;1.47;0.60;;;;;;;-145.18;90.19;47453.53;6182460;23;20450;-83
2023/04/03 11:09:58;;;;;;;3.87;0.60;;;;;;;-145.18;89.53;47453.53;6181877;23;20226;-84
2023/04/03 11:12:33;;;;;;;1.63;0.70;;;;;;;-145.18;85.95;47469.16;6182353;23;20620;-83
2023/04/03 11:15:01;;;;;;;2.33;0.50;;;;;;;-145.18;96.84;47465.25;6181606;23;20226;-84